SAZR/RSA METAR and TAF weather

Enter ICAO airport designator
Station Type Date Time Source
SAZR METAR 2019/06/18 22:35 UTC NOAA

SAZR 182235Z 23013G30KT 8000 -RA BKN045 BKN100 10/05 Q1009


Station Type Date Time Source
SAZR Decoded METAR 2019/06/18 22:35 UTC NOAA

Santa Rosa Aerodrome, Argentina (SAZR) 36-34S 064-16W 191M
Jun 18, 2019 - 06:35 PM EDT / 2019.06.18 2235 UTC
Wind: from the SW (230 degrees) at 15 MPH (13 KT) gusting to 35 MPH (30 KT):0
Visibility: 4 mile(s):0
Sky conditions: mostly cloudy
Weather: light rain
Temperature: 50 F (10 C)
Dew Point: 41 F (5 C)
Relative Humidity: 71%
Pressure (altimeter): 29.80 in. Hg (1009 hPa)
ob: SAZR 182235Z 23013G30KT 8000 -RA BKN045 BKN100 10/05 Q1009
cycle: 22

Station Type Date Time Source
SAZR TAF 2019/05/26 00:42 UTC NOAA

TAF SAZR 262300Z 2700/2724 16005KT CAVOK TX16/2718Z TN06/2710Z
BECMG 2702/2704 VRB03KT 7000 NSC PROB30
TEMPO 2706/2712 5000 BR
BECMG 2713/2715 CAVOK

Example: see airport list